Terminal Aerodrome Forecast
Issued by NWS

Current Version | Previous Version | Graphics & Text | Print | Product List | Glossary On
Versions: 1 2 3 4 5 6 7 8 9 10 11 12 13 14 15 16 17 18 19 20 21 22 23 24 25 26 27 28 29 30
000
FTUS41 KRNK 242320
TAFLWB
TAF
KLWB 242320Z 2500/2524 00000KT P6SM SCT060
     FM250900 00000KT 1/4SM FG OVC001
     FM251400 27003KT 4SM BR HZ SCT200
     FM251500 24003KT P6SM SCT120
     FM251900 27006KT P6SM BKN060=

USA.gov is the U.S. government's official web portal to all federal, state and local government web resources and services.